Urbana, IL (61803)

4:46 PM CST on December 22, 2014 (GMT -0600)
Crop Sciences Research & Education Center | Change Station
CLOSE
Current Station
Personal Weather Station
Location: Urbana, IL
Elevation: 730 ft
Nearby Weather Stations
Active Advisory: Special Statement

Elev 730 ft 40.09 °N, 88.23 °W | Updated 4 minutes ago

Rain
Rain
44.6 °F
Feels Like 38 °F
N
14.0
Wind Variable Wind from ESE
Gusts 16.4 mph

Today
High -- | Low -- °F
--% Chance of Precip.
Yesterday
High -- | Low -- °F
Precip. -- in
7:12 AM 4:31 PM
New Moon, 1% visible
Pressure 29.65 in
Visibility 3.0 miles
Clouds Mostly Cloudy 600 ft
Overcast 1000 ft
Windchill 38 °F
Dew Point 44 °F
Humidity 100%
Rainfall -999.00 in
Snow Depth Not available.
UV 0 out of 12
Pollen .10 out of 12
Air Quality Not available.
Flu Activity Not available.
METAR KCMI 222153Z 12014KT 3SM BR BKN006 OVC010 07/06 A2963 RMK AO2 SFC VIS 3 RAE35 CIG 004V009 SLP039 P0002 T00670056

More Conditions Fewer Conditions

Pressure 29.65 in
Visibility 3.0 miles
Clouds Mostly Cloudy 600 ft
Overcast 1000 ft
Windchill 38 °F
Dew Point 44 °F
Humidity 100%
Rainfall -999.00 in
Snow Depth Not available.
UV 0 out of 12
Pollen .10 out of 12
Air Quality Not available.
Flu Activity Not available.
METAR KCMI 222153Z 12014KT 3SM BR BKN006 OVC010 07/06 A2963 RMK AO2 SFC VIS 3 RAE35 CIG 004V009 SLP039 P0002 T00670056

More Conditions Fewer Conditions

10-Day Weather Forecast

Almanac

Astronomy

Dec. 22, 2014 Rise Set
Actual Time
Civil Twilight
Nautical Twilight
Astronomical Twilight
Moon
Length of Visible Light
Length of Day
Tomorrow will be .
, % of the Moon is Illuminated

Today's Extremes

State Highs State Lows

Community

WunderPhotos

Upload Photos

1,779,695 photos uploaded!

WunderBlogs® & News

Nearby

Air Quality

  Air Quality AQ Index Pollutant
Not available.

Snow Depth

Station Depth Elevation

Earthquake Activity

City Distance Mag. Time & Date
Minimum magnitude displayed is 2.5.

Coastal Water Temperatures

Place Temperature

Nearby Weather Stations